Ipiau Airport


Codes: SNIU/IPU
Name: Ipiau Airport
City: Ipiau
Country: Brazil
Elevation: 492 ft.

Photos at Ipiau Airport


   Photos courtesy of SpottingLog. You can add your own sightings and photos by signing up for a free trial today.



No photos found.

Weather at Ipiau Airport


Time (UTC)DescriptionTempratureWindCloud coverageVisibilityPressureHumidity
25-Jun-2024 12:00Scattered Clouds23°C2 mph, S36%10000m1020hPa81%
25-Jun-2024 15:00Scattered Clouds25°C4 mph, S28%10000m1019hPa72%
25-Jun-2024 18:00Scattered Clouds25°C7 mph, E29%10000m1017hPa71%
25-Jun-2024 21:00Broken Clouds22°C4 mph, E65%10000m1017hPa85%
26-Jun-2024 00:00Scattered Clouds19°C2 mph, NE43%10000m1019hPa99%
26-Jun-2024 03:00Scattered Clouds19°C0 mph, NE34%10000m1019hPa99%
26-Jun-2024 06:00Scattered Clouds19°C0 mph, SW46%2509m1018hPa99%
26-Jun-2024 09:00Overcast Clouds19°C0 mph, S100%10000m1018hPa98%
26-Jun-2024 12:00Light Rain21°C0 mph, S100%10000m1021hPa90%
26-Jun-2024 15:00Light Rain28°C2 mph, SE61%10000m1018hPa50%
26-Jun-2024 18:00Scattered Clouds29°C4 mph, S43%10000m1014hPa42%
26-Jun-2024 21:00Few Clouds22°C4 mph, E19%10000m1016hPa74%
27-Jun-2024 00:00Clear Sky18°C2 mph, N9%10000m1018hPa97%
27-Jun-2024 03:00Clear Sky17°C0 mph, NW1%10000m1018hPa99%
27-Jun-2024 06:00Clear Sky16°C0 mph, NW8%10000m1016hPa99%
27-Jun-2024 09:00Scattered Clouds16°C0 mph, NW26%10000m1017hPa99%
27-Jun-2024 12:00Scattered Clouds23°C0 mph, N45%10000m1019hPa70%
27-Jun-2024 15:00Overcast Clouds29°C2 mph, SE97%10000m1015hPa47%
27-Jun-2024 18:00Broken Clouds29°C4 mph, S67%10000m1012hPa45%
27-Jun-2024 21:00Clear Sky22°C2 mph, E4%10000m1014hPa76%
28-Jun-2024 00:00Clear Sky18°C2 mph, NE5%10000m1016hPa93%
28-Jun-2024 03:00Clear Sky17°C2 mph, N5%10000m1016hPa97%
28-Jun-2024 06:00Clear Sky16°C0 mph, N4%10000m1015hPa99%
28-Jun-2024 09:00Clear Sky15°C0 mph, NW7%10000m1016hPa98%
28-Jun-2024 12:00Clear Sky23°C0 mph, NE4%10000m1018hPa63%
28-Jun-2024 15:00Clear Sky29°C4 mph, SE0%10000m1015hPa44%
28-Jun-2024 18:00Clear Sky29°C4 mph, SE0%10000m1013hPa43%
28-Jun-2024 21:00Few Clouds22°C4 mph, E11%10000m1015hPa76%
29-Jun-2024 00:00Clear Sky18°C2 mph, NE7%10000m1018hPa99%
29-Jun-2024 03:00Few Clouds17°C0 mph, NE18%10000m1018hPa99%
29-Jun-2024 06:00Scattered Clouds17°C2 mph, NW27%10000m1017hPa99%
29-Jun-2024 09:00Scattered Clouds16°C0 mph, NW41%10000m1018hPa100%
29-Jun-2024 12:00Scattered Clouds23°C0 mph, N41%10000m1019hPa73%
29-Jun-2024 15:00Few Clouds29°C2 mph, SE21%10000m1016hPa44%
29-Jun-2024 18:00Few Clouds30°C4 mph, SE13%10000m1013hPa40%
29-Jun-2024 21:00Overcast Clouds22°C4 mph, E92%10000m1015hPa74%
30-Jun-2024 00:00Broken Clouds17°C2 mph, NE63%10000m1017hPa97%
30-Jun-2024 03:00Few Clouds16°C0 mph, NW15%10000m1017hPa99%
30-Jun-2024 06:00Few Clouds16°C2 mph, N18%10000m1016hPa99%
30-Jun-2024 09:00Scattered Clouds15°C2 mph, NW34%10000m1017hPa99%